Time;durP1;ratioP1;P1;durP2;ratioP2;P2;SDS_P1;SDS_P2;PMS_P1;PMS_P2;Temp;Humidity;BMP_temperature;BMP_pressure;BME280_temperature;BME280_humidity;BME280_pressure;Samples;Min_cycle;Max_cycle;Signal;HPM_P1;HPM_P2
2022/03/29 00:01:15;;;;;;;41.58;28.67;;;;;;;;;;5048677;28;20222;-61
2022/03/29 00:03:40;;;;;;;45.00;29.40;;;;;;;;;;5046336;28;20206;-61
2022/03/29 00:06:06;;;;;;;41.90;29.25;;;;;;;;;;5041018;28;20673;-61
2022/03/29 00:08:31;;;;;;;41.53;28.92;;;;;;;;;;5034774;28;20297;-61
2022/03/29 00:10:56;;;;;;;38.70;27.13;;;;;;;;;;5033840;28;20339;-61
2022/03/29 00:13:22;;;;;;;40.40;28.20;;;;;;;;;;5034977;28;20279;-61
2022/03/29 00:15:47;;;;;;;43.45;29.92;;;;;;;;;;5041052;28;20219;-61
2022/03/29 00:18:12;;;;;;;46.72;31.58;;;;;;;;;;5043349;28;20207;-61
2022/03/29 00:20:38;;;;;;;47.10;30.60;;;;;;;;;;5047225;28;20218;-61
2022/03/29 00:23:03;;;;;;;48.63;30.98;;;;;;;;;;5041908;28;20729;-61
2022/03/29 00:25:28;;;;;;;48.55;32.58;;;;;;;;;;5045937;28;20263;-61
2022/03/29 00:27:54;;;;;;;47.03;32.63;;;;;;;;;;5042434;28;20233;-61
2022/03/29 00:30:20;;;;;;;47.28;30.33;;;;;;;;;;5055721;28;21014;-61
2022/03/29 00:32:45;;;;;;;46.92;32.22;;;;;;;;;;5048580;28;20215;-61
2022/03/29 00:35:10;;;;;;;50.85;31.90;;;;;;;;;;5053551;28;20624;-61
2022/03/29 00:37:37;;;;;;;46.22;31.73;;;;;;;;;;5058947;28;20237;-61
2022/03/29 00:40:03;;;;;;;51.92;34.08;;;;;;;;;;5060367;28;20214;-61
2022/03/29 00:42:28;;;;;;;56.40;33.15;;;;;;;;;;5045721;28;20207;-61
2022/03/29 00:44:55;;;;;;;49.08;32.90;;;;;;;;;;5042365;28;20219;-61
2022/03/29 00:47:20;;;;;;;52.30;32.47;;;;;;;;;;5060633;28;20226;-61
2022/03/29 00:49:45;;;;;;;50.13;32.38;;;;;;;;;;5050893;28;20211;-61
2022/03/29 00:52:11;;;;;;;51.22;32.83;;;;;;;;;;5057809;28;20218;-61
2022/03/29 00:54:38;;;;;;;48.85;32.78;;;;;;;;;;5039025;28;20803;-61
2022/03/29 00:57:04;;;;;;;72.90;38.72;;;;;;;;;;5053378;28;20523;-61
2022/03/29 00:59:29;;;;;;;58.65;35.65;;;;;;;;;;5045337;28;20215;-61
2022/03/29 01:01:56;;;;;;;62.20;36.42;;;;;;;;;;5041895;28;20280;-61
2022/03/29 01:04:22;;;;;;;56.38;34.40;;;;;;;;;;5043423;28;20214;-61
2022/03/29 01:06:47;;;;;;;51.00;33.70;;;;;;;;;;5057688;28;20226;-61
2022/03/29 01:09:12;;;;;;;55.50;34.17;;;;;;;;;;5060928;28;20219;-61
2022/03/29 01:11:38;;;;;;;51.95;33.80;;;;;;;;;;5061379;28;20700;-61
2022/03/29 01:14:03;;;;;;;48.50;31.35;;;;;;;;;;5057762;28;20280;-61
2022/03/29 01:19:14;;;;;;;49.72;31.92;;;;;;;;;;5033629;28;20642;-61
2022/03/29 01:21:39;;;;;;;43.63;30.17;;;;;;;;;;5033025;28;20227;-61
2022/03/29 01:24:05;;;;;;;51.28;32.05;;;;;;;;;;5041903;28;20242;-61
2022/03/29 01:26:30;;;;;;;55.38;32.90;;;;;;;;;;5061336;28;20252;-61
2022/03/29 01:28:55;;;;;;;56.08;32.08;;;;;;;;;;5064519;28;20215;-61
2022/03/29 01:31:20;;;;;;;54.72;33.30;;;;;;;;;;5063834;28;20297;-61
2022/03/29 01:33:46;;;;;;;50.00;31.60;;;;;;;;;;5047143;28;20230;-61
2022/03/29 01:39:14;;;;;;;41.40;28.67;;;;;;;;;;5041964;28;20225;-61
2022/03/29 01:41:39;;;;;;;47.58;31.17;;;;;;;;;;5037030;28;20210;-61
2022/03/29 01:44:06;;;;;;;68.22;34.20;;;;;;;;;;5037482;28;20222;-61
2022/03/29 01:46:31;;;;;;;53.88;32.88;;;;;;;;;;5062361;28;20210;-61
2022/03/29 01:48:57;;;;;;;52.10;31.92;;;;;;;;;;5064739;28;20263;-61
2022/03/29 01:51:22;;;;;;;57.53;33.38;;;;;;;;;;5063998;28;20665;-61
2022/03/29 01:53:51;;;;;;;52.20;32.35;;;;;;;;;;5056416;28;20230;-61
2022/03/29 01:56:16;;;;;;;60.03;32.80;;;;;;;;;;5062037;28;20234;-61
2022/03/29 01:58:42;;;;;;;59.60;33.75;;;;;;;;;;5059158;28;20569;-61
2022/03/29 02:01:08;;;;;;;79.95;34.33;;;;;;;;;;5038158;28;20219;-61
2022/03/29 02:03:33;;;;;;;87.60;34.72;;;;;;;;;;5038353;28;20309;-61
2022/03/29 02:05:59;;;;;;;66.20;33.20;;;;;;;;;;5055259;28;20379;-61
2022/03/29 02:08:24;;;;;;;49.15;31.35;;;;;;;;;;5061539;28;20238;-61
2022/03/29 02:10:49;;;;;;;184.85;37.72;;;;;;;;;;5063888;28;20214;-61
2022/03/29 02:13:16;;;;;;;89.55;35.75;;;;;;;;;;5059567;28;20227;-61
2022/03/29 02:15:42;;;;;;;113.00;39.35;;;;;;;;;;5043128;28;20892;-61
2022/03/29 02:18:07;;;;;;;171.90;40.97;;;;;;;;;;5043470;28;20438;-61
2022/03/29 02:20:32;;;;;;;89.88;36.20;;;;;;;;;;5044716;28;20210;-60
2022/03/29 02:23:02;;;;;;;388.17;47.08;;;;;;;;;;5041981;28;20215;-60
2022/03/29 02:25:28;;;;;;;215.77;42.58;;;;;;;;;;5054889;28;20252;-60
2022/03/29 02:27:53;;;;;;;103.00;38.25;;;;;;;;;;5055844;28;20301;-61
2022/03/29 02:30:19;;;;;;;77.05;34.70;;;;;;;;;;5050260;28;20685;-60
2022/03/29 02:32:44;;;;;;;74.68;35.03;;;;;;;;;;5043833;28;20294;-61
2022/03/29 02:35:10;;;;;;;78.00;34.55;;;;;;;;;;5043988;28;20218;-61
2022/03/29 02:37:35;;;;;;;61.08;33.13;;;;;;;;;;5044004;28;20298;-61
2022/03/29 02:40:01;;;;;;;98.22;36.05;;;;;;;;;;5049046;28;20652;-61
2022/03/29 02:42:26;;;;;;;113.07;36.08;;;;;;;;;;5048737;28;20743;-61
2022/03/29 02:44:51;;;;;;;65.10;33.08;;;;;;;;;;5043414;28;20740;-61
2022/03/29 02:47:16;;;;;;;62.67;33.50;;;;;;;;;;5035269;28;20871;-61
2022/03/29 02:49:42;;;;;;;89.53;35.17;;;;;;;;;;5036201;28;20246;-61
2022/03/29 02:52:07;;;;;;;107.65;36.83;;;;;;;;;;5036415;28;20245;-61
2022/03/29 02:54:32;;;;;;;130.38;38.63;;;;;;;;;;5056462;28;20217;-61
2022/03/29 02:56:58;;;;;;;89.43;37.38;;;;;;;;;;5061493;28;20336;-60
2022/03/29 02:59:23;;;;;;;63.53;34.78;;;;;;;;;;5053214;28;20241;-61
2022/03/29 03:01:48;;;;;;;106.95;38.00;;;;;;;;;;5042789;28;20214;-61
2022/03/29 03:04:14;;;;;;;82.13;36.63;;;;;;;;;;5043423;28;20314;-61
2022/03/29 03:06:40;;;;;;;157.95;39.92;;;;;;;;;;5059945;28;20670;-61
2022/03/29 03:09:06;;;;;;;145.57;38.15;;;;;;;;;;5036723;28;20223;-61
2022/03/29 03:11:31;;;;;;;70.87;36.10;;;;;;;;;;5035984;28;20863;-61
2022/03/29 03:13:57;;;;;;;98.35;38.67;;;;;;;;;;5035106;28;20249;-61
2022/03/29 03:16:22;;;;;;;808.45;62.83;;;;;;;;;;5024897;28;20223;-61
2022/03/29 03:18:47;;;;;;;417.63;52.85;;;;;;;;;;5043338;28;20674;-61
2022/03/29 03:21:13;;;;;;;105.90;40.15;;;;;;;;;;5043365;28;20214;-61
2022/03/29 03:23:38;;;;;;;118.18;38.55;;;;;;;;;;5054924;28;20581;-61
2022/03/29 03:26:03;;;;;;;105.82;39.97;;;;;;;;;;5062938;28;20229;-61
2022/03/29 03:28:28;;;;;;;98.30;36.67;;;;;;;;;;5062579;28;20221;-61
2022/03/29 03:30:54;;;;;;;76.95;36.17;;;;;;;;;;5059400;28;20658;-61
2022/03/29 03:33:20;;;;;;;92.38;38.53;;;;;;;;;;5053793;28;20311;-61
2022/03/29 03:35:45;;;;;;;153.68;40.55;;;;;;;;;;5054060;28;20246;-60
2022/03/29 03:38:10;;;;;;;77.63;37.15;;;;;;;;;;5056748;28;20662;-61
2022/03/29 03:40:35;;;;;;;85.68;36.28;;;;;;;;;;5043006;28;20219;-61
2022/03/29 03:43:02;;;;;;;187.60;39.70;;;;;;;;;;5042430;28;20207;-61
2022/03/29 03:45:28;;;;;;;139.35;38.95;;;;;;;;;;5062079;28;20543;-61
2022/03/29 03:47:53;;;;;;;133.27;38.70;;;;;;;;;;5050327;28;20740;-61
2022/03/29 03:50:19;;;;;;;102.28;38.53;;;;;;;;;;5041679;28;20228;-61
2022/03/29 03:52:45;;;;;;;66.25;36.35;;;;;;;;;;5042230;28;20223;-61
2022/03/29 03:55:10;;;;;;;65.68;35.47;;;;;;;;;;5045077;28;20253;-61
2022/03/29 03:57:36;;;;;;;138.68;39.88;;;;;;;;;;5033688;28;20223;-61
2022/03/29 04:00:01;;;;;;;615.33;56.03;;;;;;;;;;5035550;28;20219;-61
2022/03/29 04:02:26;;;;;;;445.35;50.33;;;;;;;;;;5043617;28;20719;-61
2022/03/29 04:04:52;;;;;;;215.02;44.10;;;;;;;;;;5062152;28;20771;-61
2022/03/29 04:07:17;;;;;;;216.35;44.60;;;;;;;;;;5061633;28;20214;-61
2022/03/29 04:09:43;;;;;;;403.37;48.50;;;;;;;;;;5062636;28;20214;-61
2022/03/29 04:12:08;;;;;;;101.00;39.28;;;;;;;;;;5057718;28;20296;-61
2022/03/29 04:14:33;;;;;;;93.47;38.17;;;;;;;;;;5042833;28;20922;-61
2022/03/29 04:16:59;;;;;;;154.73;39.10;;;;;;;;;;5036426;28;20222;-61
2022/03/29 04:19:24;;;;;;;115.97;38.63;;;;;;;;;;5035412;28;20565;-61
2022/03/29 04:21:49;;;;;;;180.23;38.65;;;;;;;;;;5034918;28;20301;-61
2022/03/29 04:24:14;;;;;;;120.97;38.75;;;;;;;;;;5039139;28;20230;-61
2022/03/29 04:26:40;;;;;;;101.55;36.38;;;;;;;;;;5043976;28;20211;-61
2022/03/29 04:29:05;;;;;;;88.93;36.15;;;;;;;;;;5041732;28;20306;-61
2022/03/29 04:31:30;;;;;;;229.00;41.25;;;;;;;;;;5041926;28;20207;-61
2022/03/29 04:33:56;;;;;;;113.65;37.90;;;;;;;;;;5041912;28;20344;-61
2022/03/29 04:36:21;;;;;;;265.73;45.65;;;;;;;;;;5041736;28;20213;-61
2022/03/29 04:38:47;;;;;;;262.10;44.60;;;;;;;;;;5058107;28;20499;-61
2022/03/29 04:41:12;;;;;;;381.47;48.23;;;;;;;;;;5047334;28;20207;-61
2022/03/29 04:43:37;;;;;;;286.65;45.30;;;;;;;;;;5033994;28;20272;-61
2022/03/29 04:46:02;;;;;;;387.40;49.30;;;;;;;;;;5036113;28;20207;-61
2022/03/29 04:48:28;;;;;;;131.18;37.35;;;;;;;;;;5041690;28;20257;-61
2022/03/29 04:50:53;;;;;;;106.13;36.78;;;;;;;;;;5043179;28;20271;-61
2022/03/29 04:53:19;;;;;;;81.03;35.33;;;;;;;;;;5041207;28;20276;-61
2022/03/29 04:55:44;;;;;;;94.60;37.78;;;;;;;;;;5041976;28;20226;-61
2022/03/29 04:58:10;;;;;;;201.30;39.40;;;;;;;;;;5045079;28;20214;-61
2022/03/29 05:00:35;;;;;;;87.32;35.65;;;;;;;;;;5041583;28;20203;-61
2022/03/29 05:03:00;;;;;;;106.10;35.85;;;;;;;;;;5035645;28;20215;-61
2022/03/29 05:05:26;;;;;;;108.97;37.60;;;;;;;;;;5038020;28;20210;-61
2022/03/29 05:07:51;;;;;;;227.25;41.75;;;;;;;;;;5054838;28;20289;-61
2022/03/29 05:10:16;;;;;;;108.88;38.53;;;;;;;;;;5063938;28;20265;-61
2022/03/29 05:12:42;;;;;;;172.93;38.28;;;;;;;;;;5065407;28;20214;-61
2022/03/29 05:15:07;;;;;;;300.98;43.42;;;;;;;;;;5064366;28;20210;-61
2022/03/29 05:17:34;;;;;;;295.35;44.28;;;;;;;;;;5065457;28;20210;-61
2022/03/29 05:19:59;;;;;;;169.55;41.70;;;;;;;;;;5065121;28;20210;-61
2022/03/29 05:22:24;;;;;;;656.10;58.70;;;;;;;;;;5052526;28;20214;-61
2022/03/29 05:24:50;;;;;;;431.70;51.13;;;;;;;;;;5060038;28;20708;-61
2022/03/29 05:27:15;;;;;;;218.05;45.30;;;;;;;;;;5056298;28;20576;-61
2022/03/29 05:29:41;;;;;;;145.85;41.40;;;;;;;;;;5056575;28;20202;-61
2022/03/29 05:32:07;;;;;;;350.55;47.78;;;;;;;;;;5061299;28;20712;-61
2022/03/29 05:34:32;;;;;;;669.35;56.35;;;;;;;;;;5065015;28;20214;-61
2022/03/29 05:36:57;;;;;;;183.23;43.58;;;;;;;;;;5064838;28;20214;-61
2022/03/29 05:39:22;;;;;;;114.05;38.13;;;;;;;;;;5064138;28;20210;-61
2022/03/29 05:41:47;;;;;;;272.20;44.78;;;;;;;;;;5054353;28;20223;-61
2022/03/29 05:44:13;;;;;;;105.47;40.22;;;;;;;;;;5045678;28;20215;-68
2022/03/29 05:49:22;;;;;;;188.95;45.25;;;;;;;;;;5050729;28;20209;-74
2022/03/29 05:51:49;;;;;;;482.63;58.60;;;;;;;;;;5055928;28;20845;-74
2022/03/29 05:54:15;;;;;;;174.77;50.55;;;;;;;;;;5030522;28;20901;-59
2022/03/29 05:56:40;;;;;;;379.73;52.40;;;;;;;;;;5044410;28;20314;-59
2022/03/29 05:59:07;;;;;;;195.43;44.00;;;;;;;;;;5044252;28;20264;-59
2022/03/29 06:01:32;;;;;;;107.07;40.75;;;;;;;;;;5045540;28;20215;-59
2022/03/29 06:03:57;;;;;;;134.98;40.20;;;;;;;;;;5043991;28;20280;-59
2022/03/29 06:06:23;;;;;;;138.47;38.43;;;;;;;;;;5044335;28;20223;-58
2022/03/29 06:08:48;;;;;;;89.13;37.83;;;;;;;;;;5044199;28;20207;-58
2022/03/29 06:11:14;;;;;;;95.27;44.17;;;;;;;;;;5034823;28;20902;-61
2022/03/29 06:13:39;;;;;;;103.43;38.10;;;;;;;;;;5035702;28;20257;-61
2022/03/29 06:16:05;;;;;;;81.97;35.67;;;;;;;;;;5037675;28;20443;-60
2022/03/29 06:18:30;;;;;;;73.22;35.17;;;;;;;;;;5026365;28;20336;-60
2022/03/29 06:20:56;;;;;;;83.47;36.50;;;;;;;;;;5045095;28;20219;-61
2022/03/29 06:23:21;;;;;;;91.78;36.63;;;;;;;;;;5044937;28;20663;-61
2022/03/29 06:25:47;;;;;;;89.32;36.80;;;;;;;;;;5044234;28;20229;-61
2022/03/29 06:28:13;;;;;;;86.50;37.25;;;;;;;;;;5029572;28;20218;-61
2022/03/29 06:30:39;;;;;;;79.55;36.70;;;;;;;;;;5044062;28;20576;-61
2022/03/29 06:33:04;;;;;;;82.68;36.72;;;;;;;;;;5037800;28;20223;-60
2022/03/29 06:35:31;;;;;;;75.60;35.00;;;;;;;;;;5036913;28;20301;-61
2022/03/29 06:37:57;;;;;;;84.13;36.75;;;;;;;;;;5055024;28;20353;-62
2022/03/29 06:40:22;;;;;;;76.85;36.72;;;;;;;;;;5060043;28;20802;-61
2022/03/29 06:42:48;;;;;;;72.30;35.35;;;;;;;;;;5043546;28;20207;-61
2022/03/29 06:45:13;;;;;;;63.03;32.30;;;;;;;;;;5041526;28;20215;-61
2022/03/29 06:47:39;;;;;;;79.22;34.42;;;;;;;;;;5041810;28;20356;-62
2022/03/29 06:50:04;;;;;;;75.25;36.22;;;;;;;;;;5041980;28;21197;-62
2022/03/29 06:52:36;;;;;;;61.85;34.20;;;;;;;;;;5042782;28;20645;-62
2022/03/29 06:55:02;;;;;;;69.70;34.40;;;;;;;;;;5040220;28;20296;-62
2022/03/29 06:57:27;;;;;;;62.63;31.73;;;;;;;;;;5031429;28;20669;-62
2022/03/29 06:59:52;;;;;;;68.18;32.28;;;;;;;;;;5035515;28;20218;-62
2022/03/29 07:02:19;;;;;;;61.05;33.67;;;;;;;;;;5047830;28;20207;-62
2022/03/29 07:04:44;;;;;;;73.40;48.65;;;;;;;;;;5059271;28;20215;-62
2022/03/29 07:07:09;;;;;;;58.13;31.10;;;;;;;;;;5072275;28;20217;-62
2022/03/29 07:12:20;;;;;;;57.67;31.30;;;;;;;;;;5072664;28;20214;-62
2022/03/29 07:14:45;;;;;;;49.90;30.03;;;;;;;;;;5072839;28;20218;-62
2022/03/29 07:17:13;;;;;;;52.55;31.42;;;;;;;;;;5073039;28;20251;-62
2022/03/29 07:19:38;;;;;;;53.80;29.40;;;;;;;;;;5073147;28;20210;-62
2022/03/29 07:22:04;;;;;;;59.85;33.70;;;;;;;;;;5068535;28;20214;-62
2022/03/29 07:24:30;;;;;;;70.10;35.70;;;;;;;;;;5073035;28;20210;-62
2022/03/29 07:26:55;;;;;;;53.88;31.27;;;;;;;;;;5072340;28;20293;-62
2022/03/29 07:29:20;;;;;;;56.95;31.38;;;;;;;;;;5072490;28;20305;-62
2022/03/29 07:31:46;;;;;;;56.25;31.20;;;;;;;;;;5073148;28;20237;-62
2022/03/29 07:34:11;;;;;;;56.85;31.52;;;;;;;;;;5071873;28;20229;-62
2022/03/29 07:36:36;;;;;;;58.47;30.50;;;;;;;;;;5072628;28;20782;-62
2022/03/29 07:39:02;;;;;;;53.67;30.27;;;;;;;;;;5069320;28;20229;-61
2022/03/29 07:41:27;;;;;;;65.45;33.50;;;;;;;;;;5059314;28;20579;-62
2022/03/29 07:43:54;;;;;;;64.03;33.03;;;;;;;;;;5072397;28;20210;-63
2022/03/29 07:46:19;;;;;;;58.80;33.77;;;;;;;;;;5072124;28;20213;-62
2022/03/29 07:48:45;;;;;;;63.95;33.83;;;;;;;;;;5052306;28;20210;-63
2022/03/29 07:51:11;;;;;;;57.13;32.47;;;;;;;;;;5071664;28;20677;-63
2022/03/29 07:53:36;;;;;;;60.05;31.75;;;;;;;;;;5065935;28;20219;-62
2022/03/29 07:56:01;;;;;;;56.88;32.90;;;;;;;;;;5063640;28;20320;-61
2022/03/29 07:58:27;;;;;;;64.55;33.92;;;;;;;;;;5073277;28;20206;-61
2022/03/29 08:00:53;;;;;;;62.22;34.42;;;;;;;;;;5069611;28;20302;-60
2022/03/29 08:03:21;;;;;;;63.00;33.83;;;;;;;;;;5060553;28;20610;-61
2022/03/29 08:05:47;;;;;;;56.40;32.50;;;;;;;;;;5057868;28;20677;-61
2022/03/29 08:08:14;;;;;;;65.28;35.13;;;;;;;;;;5055169;28;20210;-61
2022/03/29 08:10:40;;;;;;;67.47;33.72;;;;;;;;;;5065131;28;20206;-61
2022/03/29 08:13:07;;;;;;;57.80;32.60;;;;;;;;;;5050647;28;20349;-61
2022/03/29 08:15:33;;;;;;;68.15;34.92;;;;;;;;;;5050299;28;20215;-61
2022/03/29 08:17:58;;;;;;;67.25;35.78;;;;;;;;;;5049649;28;20796;-61
2022/03/29 08:20:23;;;;;;;211.10;93.82;;;;;;;;;;5049634;28;20219;-61
2022/03/29 08:22:49;;;;;;;114.68;76.13;;;;;;;;;;5050107;28;20214;-61
2022/03/29 08:25:15;;;;;;;66.75;37.40;;;;;;;;;;5049042;28;20588;-61
2022/03/29 08:27:40;;;;;;;60.40;34.10;;;;;;;;;;5050041;28;20211;-61
2022/03/29 08:30:06;;;;;;;58.70;33.95;;;;;;;;;;5049614;28;20272;-61
2022/03/29 08:32:32;;;;;;;63.80;33.00;;;;;;;;;;5049580;28;20222;-61
2022/03/29 08:34:58;;;;;;;58.25;32.08;;;;;;;;;;5050068;28;20227;-61
2022/03/29 08:37:23;;;;;;;62.47;34.03;;;;;;;;;;5050399;28;20218;-61
2022/03/29 08:39:48;;;;;;;57.50;31.98;;;;;;;;;;5053980;28;20225;-61
2022/03/29 08:42:15;;;;;;;70.25;35.63;;;;;;;;;;5067043;28;20221;-61
2022/03/29 08:44:40;;;;;;;61.30;33.57;;;;;;;;;;5073763;28;20214;-61
2022/03/29 08:47:06;;;;;;;66.50;34.80;;;;;;;;;;5073351;28;20268;-61
2022/03/29 08:49:31;;;;;;;66.73;34.77;;;;;;;;;;5056293;28;20688;-61
2022/03/29 08:51:56;;;;;;;74.10;37.17;;;;;;;;;;5060142;28;20736;-61
2022/03/29 08:54:22;;;;;;;66.22;34.38;;;;;;;;;;5093157;28;20221;-61
2022/03/29 08:56:47;;;;;;;60.15;34.10;;;;;;;;;;5095243;28;20225;-61
2022/03/29 08:59:12;;;;;;;60.63;33.28;;;;;;;;;;5085576;28;20205;-61
2022/03/29 09:01:37;;;;;;;60.07;35.00;;;;;;;;;;5075925;28;20275;-61
2022/03/29 09:04:04;;;;;;;68.07;35.80;;;;;;;;;;5075500;28;20214;-61
2022/03/29 09:06:29;;;;;;;68.38;35.80;;;;;;;;;;5074654;28;20214;-61
2022/03/29 09:08:54;;;;;;;69.35;36.00;;;;;;;;;;5075803;28;20692;-61
2022/03/29 09:11:21;;;;;;;68.38;36.67;;;;;;;;;;5056908;28;20222;-61
2022/03/29 09:13:47;;;;;;;70.68;35.72;;;;;;;;;;5054612;28;20622;-61
2022/03/29 09:16:32;;;;;;;63.35;34.78;;;;;;;;;;5055127;28;20261;-61
2022/03/29 09:18:58;;;;;;;71.00;38.38;;;;;;;;;;5055485;28;20748;-61
2022/03/29 09:21:24;;;;;;;70.63;36.25;;;;;;;;;;5054307;28;20289;-61
2022/03/29 09:24:06;;;;;;;68.55;35.05;;;;;;;;;;5055283;28;20561;-61
2022/03/29 09:26:32;;;;;;;64.13;37.08;;;;;;;;;;5054119;28;20203;-61
2022/03/29 09:28:58;;;;;;;62.33;34.15;;;;;;;;;;5055175;28;20290;-62
2022/03/29 09:31:24;;;;;;;61.40;34.42;;;;;;;;;;5054962;28;20210;-61
2022/03/29 09:33:49;;;;;;;59.42;33.30;;;;;;;;;;5054629;28;20231;-61
2022/03/29 09:36:20;;;;;;;60.30;35.90;;;;;;;;;;5054457;28;20203;-61
2022/03/29 09:38:47;;;;;;;62.85;34.92;;;;;;;;;;5038038;28;20298;-61
2022/03/29 09:41:19;;;;;;;74.28;37.08;;;;;;;;;;5059019;28;20681;-61
2022/03/29 09:43:45;;;;;;;58.83;33.75;;;;;;;;;;5074874;28;20658;-61
2022/03/29 09:46:10;;;;;;;54.47;32.33;;;;;;;;;;5056580;28;20272;-61
2022/03/29 09:48:36;;;;;;;58.45;32.80;;;;;;;;;;5073883;28;20206;-61
2022/03/29 09:51:07;;;;;;;54.08;32.60;;;;;;;;;;5074549;28;20214;-62
2022/03/29 09:53:43;;;;;;;53.13;32.33;;;;;;;;;;5074831;28;20218;-61
2022/03/29 09:56:09;;;;;;;54.25;30.45;;;;;;;;;;5072979;28;20229;-61
2022/03/29 09:58:35;;;;;;;50.85;30.70;;;;;;;;;;5052822;28;20210;-61
2022/03/29 10:01:00;;;;;;;50.58;31.13;;;;;;;;;;5037070;28;20215;-61
2022/03/29 10:03:26;;;;;;;53.95;32.50;;;;;;;;;;5036036;28;20268;-62
2022/03/29 10:05:53;;;;;;;57.70;33.70;;;;;;;;;;5054850;28;20576;-61
2022/03/29 10:11:05;;;;;;;55.65;32.88;;;;;;;;;;5043268;28;20316;-62
2022/03/29 10:13:30;;;;;;;53.30;32.45;;;;;;;;;;5055735;28;20238;-62
2022/03/29 10:15:56;;;;;;;53.13;32.72;;;;;;;;;;5056771;28;20207;-66
2022/03/29 10:18:22;;;;;;;56.45;34.05;;;;;;;;;;5073807;28;20206;-64
2022/03/29 10:20:48;;;;;;;53.00;32.20;;;;;;;;;;5068942;28;20203;-64
2022/03/29 10:23:14;;;;;;;50.42;31.38;;;;;;;;;;5063761;28;20210;-64
2022/03/29 10:25:39;;;;;;;48.80;31.10;;;;;;;;;;5053622;28;20577;-64
2022/03/29 10:28:05;;;;;;;53.58;33.25;;;;;;;;;;5055720;28;20680;-63
2022/03/29 10:30:31;;;;;;;49.80;31.20;;;;;;;;;;5073599;28;20213;-63
2022/03/29 10:33:14;;;;;;;49.83;31.27;;;;;;;;;;5050290;28;20281;-63
2022/03/29 10:35:57;;;;;;;48.63;31.55;;;;;;;;;;5063836;28;20614;-63
2022/03/29 10:38:23;;;;;;;51.80;32.38;;;;;;;;;;5059084;28;20214;-64
2022/03/29 10:40:48;;;;;;;48.17;31.58;;;;;;;;;;5045574;28;20268;-64
2022/03/29 10:43:26;;;;;;;50.58;31.65;;;;;;;;;;5070305;28;20554;-63
2022/03/29 10:45:51;;;;;;;55.47;33.33;;;;;;;;;;5058189;28;20206;-62
2022/03/29 10:48:17;;;;;;;48.40;30.95;;;;;;;;;;5058728;28;20219;-62
2022/03/29 10:50:46;;;;;;;50.40;31.88;;;;;;;;;;5054172;28;20219;-62
2022/03/29 10:53:21;;;;;;;49.63;31.75;;;;;;;;;;5054538;28;20207;-61
2022/03/29 10:55:47;;;;;;;52.13;34.60;;;;;;;;;;5056404;28;20238;-61
2022/03/29 10:58:13;;;;;;;50.08;32.72;;;;;;;;;;5041316;28;20772;-61
2022/03/29 11:00:40;;;;;;;53.15;34.22;;;;;;;;;;5037980;28;20219;-61
2022/03/29 11:03:07;;;;;;;51.03;32.33;;;;;;;;;;5053457;28;20218;-62
2022/03/29 11:05:33;;;;;;;45.50;30.80;;;;;;;;;;5059277;28;20211;-61
2022/03/29 11:07:59;;;;;;;48.60;33.03;;;;;;;;;;5064207;28;20214;-62
2022/03/29 11:10:37;;;;;;;50.80;32.85;;;;;;;;;;5058140;28;20302;-61
2022/03/29 11:13:03;;;;;;;50.13;33.38;;;;;;;;;;5053161;28;20269;-61
2022/03/29 11:15:32;;;;;;;48.70;33.33;;;;;;;;;;5035354;28;20206;-61
2022/03/29 11:17:57;;;;;;;46.08;32.35;;;;;;;;;;5053498;28;20211;-61
2022/03/29 11:20:29;;;;;;;47.13;33.20;;;;;;;;;;5052156;28;20207;-61
2022/03/29 11:22:56;;;;;;;47.53;34.20;;;;;;;;;;5053128;28;20705;-61
2022/03/29 11:25:22;;;;;;;46.10;31.33;;;;;;;;;;5034456;28;20232;-61
2022/03/29 11:27:48;;;;;;;44.47;31.40;;;;;;;;;;5052374;28;20203;-61
2022/03/29 11:30:14;;;;;;;44.03;31.90;;;;;;;;;;5052656;28;20576;-62
2022/03/29 11:32:39;;;;;;;48.42;33.47;;;;;;;;;;5035573;28;20207;-61
2022/03/29 11:35:06;;;;;;;49.13;33.17;;;;;;;;;;5051826;28;20231;-62
2022/03/29 11:37:37;;;;;;;46.55;31.13;;;;;;;;;;5055155;28;20237;-61
2022/03/29 11:40:03;;;;;;;42.42;31.40;;;;;;;;;;5071578;28;20676;-61
2022/03/29 11:42:41;;;;;;;47.90;33.75;;;;;;;;;;5076476;28;20210;-61
2022/03/29 11:45:07;;;;;;;43.30;30.88;;;;;;;;;;5072567;28;20629;-61
2022/03/29 11:47:32;;;;;;;43.60;30.02;;;;;;;;;;5059153;28;20602;-61
2022/03/29 11:49:57;;;;;;;40.85;29.42;;;;;;;;;;5068412;28;20218;-61
2022/03/29 11:52:23;;;;;;;42.15;29.17;;;;;;;;;;5054659;28;20207;-61
2022/03/29 11:54:51;;;;;;;38.42;29.25;;;;;;;;;;5054107;28;20305;-61
2022/03/29 11:57:21;;;;;;;39.30;28.25;;;;;;;;;;5071441;28;20230;-61
2022/03/29 11:59:47;;;;;;;38.97;28.48;;;;;;;;;;5058324;28;20231;-61
2022/03/29 12:02:12;;;;;;;39.72;28.92;;;;;;;;;;5051496;28;21139;-61
2022/03/29 12:04:38;;;;;;;38.78;28.25;;;;;;;;;;5052789;28;20203;-61
2022/03/29 12:07:03;;;;;;;41.33;29.00;;;;;;;;;;5052328;28;20218;-61
2022/03/29 12:09:30;;;;;;;39.40;27.77;;;;;;;;;;5051505;28;20211;-61
2022/03/29 12:11:56;;;;;;;37.92;28.75;;;;;;;;;;5054849;28;20206;-61
2022/03/29 12:14:21;;;;;;;35.67;26.17;;;;;;;;;;5069494;28;20691;-61
2022/03/29 12:16:48;;;;;;;36.42;28.10;;;;;;;;;;5053988;28;20267;-61
2022/03/29 12:19:14;;;;;;;32.55;24.40;;;;;;;;;;5068422;28;20217;-61
2022/03/29 12:21:40;;;;;;;35.15;25.60;;;;;;;;;;5092681;28;20686;-61
2022/03/29 12:24:06;;;;;;;34.70;26.45;;;;;;;;;;5073118;28;20214;-61
2022/03/29 12:26:31;;;;;;;33.15;25.73;;;;;;;;;;5092249;28;20206;-61
2022/03/29 12:28:56;;;;;;;35.80;25.65;;;;;;;;;;5092268;28;20212;-61
2022/03/29 12:31:24;;;;;;;35.88;26.10;;;;;;;;;;5091427;28;20217;-61
2022/03/29 12:33:49;;;;;;;34.47;24.50;;;;;;;;;;5092495;28;20278;-61
2022/03/29 12:36:15;;;;;;;35.15;24.98;;;;;;;;;;5092301;28;20739;-61
2022/03/29 12:38:41;;;;;;;31.75;24.45;;;;;;;;;;5091539;28;20351;-60
2022/03/29 12:41:08;;;;;;;35.10;24.88;;;;;;;;;;5087362;28;20255;-60
2022/03/29 12:43:35;;;;;;;31.98;25.00;;;;;;;;;;5071706;28;20215;-61
2022/03/29 12:46:00;;;;;;;33.42;23.25;;;;;;;;;;5071417;28;20619;-61
2022/03/29 12:48:26;;;;;;;31.20;23.40;;;;;;;;;;5072083;28;20217;-61
2022/03/29 12:50:52;;;;;;;31.58;24.10;;;;;;;;;;5071778;28;20228;-61
2022/03/29 12:53:17;;;;;;;35.35;23.83;;;;;;;;;;5069485;28;20211;-61
2022/03/29 12:55:54;;;;;;;29.90;23.58;;;;;;;;;;5071947;28;20263;-61
2022/03/29 12:58:27;;;;;;;30.25;22.30;;;;;;;;;;5068604;28;20304;-60
2022/03/29 13:00:52;;;;;;;30.25;22.73;;;;;;;;;;5051963;28;20607;-61
2022/03/29 13:03:19;;;;;;;32.22;21.35;;;;;;;;;;5033787;28;20199;-61
2022/03/29 13:05:46;;;;;;;35.47;24.70;;;;;;;;;;5033617;28;20567;-61
2022/03/29 13:08:14;;;;;;;34.50;23.60;;;;;;;;;;5051569;28;20214;-61
2022/03/29 13:10:41;;;;;;;33.95;24.52;;;;;;;;;;5033842;28;20698;-61
2022/03/29 13:13:10;;;;;;;32.85;24.70;;;;;;;;;;5051661;28;20631;-61
2022/03/29 13:15:37;;;;;;;36.90;25.25;;;;;;;;;;5051884;28;20238;-61
2022/03/29 13:18:03;;;;;;;34.65;25.58;;;;;;;;;;5051514;28;20286;-61
2022/03/29 13:20:28;;;;;;;29.52;22.35;;;;;;;;;;5051054;28;20203;-61
2022/03/29 13:22:53;;;;;;;32.67;24.92;;;;;;;;;;5064712;28;20257;-62
2022/03/29 13:25:32;;;;;;;32.50;23.83;;;;;;;;;;5074961;28;20214;-61
2022/03/29 13:27:57;;;;;;;30.35;23.00;;;;;;;;;;5056833;28;20214;-61
2022/03/29 13:30:22;;;;;;;30.63;21.90;;;;;;;;;;5074565;28;20214;-61
2022/03/29 13:32:47;;;;;;;30.30;21.88;;;;;;;;;;5075241;28;20214;-61
2022/03/29 13:35:13;;;;;;;31.88;22.50;;;;;;;;;;5074672;28;20698;-61
2022/03/29 13:37:38;;;;;;;29.50;22.23;;;;;;;;;;5075425;28;20252;-61
2022/03/29 13:40:04;;;;;;;31.73;23.08;;;;;;;;;;5073012;28;20552;-61
2022/03/29 13:42:29;;;;;;;31.48;23.27;;;;;;;;;;5088783;28;20206;-61
2022/03/29 13:44:54;;;;;;;27.58;22.48;;;;;;;;;;5095568;28;20226;-61
2022/03/29 13:47:19;;;;;;;32.05;23.75;;;;;;;;;;5092003;28;20220;-61
2022/03/29 13:49:45;;;;;;;31.35;21.40;;;;;;;;;;5094027;28;20690;-61
2022/03/29 13:52:10;;;;;;;31.95;20.67;;;;;;;;;;5095023;28;20293;-61
2022/03/29 13:54:36;;;;;;;30.63;22.33;;;;;;;;;;5094146;28;20217;-61
2022/03/29 13:57:02;;;;;;;30.92;21.60;;;;;;;;;;5094748;28;20237;-61
2022/03/29 13:59:28;;;;;;;26.98;19.45;;;;;;;;;;5083460;28;20214;-61
2022/03/29 14:01:54;;;;;;;28.20;20.63;;;;;;;;;;5073870;28;20618;-61
2022/03/29 14:04:19;;;;;;;28.38;18.42;;;;;;;;;;5074448;28;20684;-61
2022/03/29 14:06:44;;;;;;;27.80;18.67;;;;;;;;;;5074782;28;20214;-61
2022/03/29 14:09:10;;;;;;;30.40;19.60;;;;;;;;;;5073235;28;20320;-61
2022/03/29 14:11:35;;;;;;;26.25;18.08;;;;;;;;;;5072393;28;20213;-61
2022/03/29 14:14:00;;;;;;;27.48;16.90;;;;;;;;;;5053963;28;20707;-61
2022/03/29 14:16:26;;;;;;;26.55;18.05;;;;;;;;;;5053867;28;20214;-61
2022/03/29 14:18:53;;;;;;;24.30;17.73;;;;;;;;;;5037040;28;20737;-61
2022/03/29 14:21:18;;;;;;;26.13;17.90;;;;;;;;;;5054510;28;20280;-61